Time;durP1;ratioP1;P1;durP2;ratioP2;P2;SDS_P1;SDS_P2;PMS_P1;PMS_P2;Temp;Humidity;BMP_temperature;BMP_pressure;BME280_temperature;BME280_humidity;BME280_pressure;Samples;Min_cycle;Max_cycle;Signal;HPM_P1;HPM_P2
2021/08/15 00:01:04;;;;;;;;;10.50;8.00;;;;;25.78;40.19;101225.94;5076951;27;45363;-50
2021/08/15 00:03:29;;;;;;;;;7.75;7.75;;;;;25.79;40.35;101229.41;5076754;27;46228;-51
2021/08/15 00:05:54;;;;;;;;;11.25;10.50;;;;;25.78;40.35;101227.72;5076463;27;51264;-49
2021/08/15 00:08:20;;;;;;;;;9.75;9.50;;;;;25.77;40.55;101221.56;5077026;28;48172;-48
2021/08/15 00:10:45;;;;;;;;;10.50;8.50;;;;;25.77;40.87;101216.25;5077278;28;45344;-48
2021/08/15 00:13:10;;;;;;;;;8.00;7.25;;;;;25.77;40.60;101216.25;5076593;28;45433;-51
2021/08/15 00:15:36;;;;;;;;;9.00;8.00;;;;;25.76;40.33;101209.25;5076746;28;45424;-49
2021/08/15 00:18:01;;;;;;;;;9.00;8.00;;;;;25.77;40.85;101207.44;5076733;28;45389;-50
2021/08/15 00:20:27;;;;;;;;;9.25;8.25;;;;;25.76;40.89;101200.44;5076892;28;45357;-50
2021/08/15 00:22:52;;;;;;;;;9.50;8.25;;;;;25.75;40.41;101199.59;5058085;28;47420;-48
2021/08/15 00:25:18;;;;;;;;;7.75;7.75;;;;;25.76;40.60;101197.78;5076807;28;45334;-48
2021/08/15 00:27:45;;;;;;;;;6.75;6.25;;;;;25.76;40.50;101203.06;5076667;28;45281;-51
2021/08/15 00:30:14;;;;;;;;;8.00;7.75;;;;;25.74;40.50;101199.72;5076796;28;45303;-53
2021/08/15 00:32:40;;;;;;;;;8.75;7.25;;;;;25.74;40.78;101189.09;5077178;27;45404;-52
2021/08/15 00:35:06;;;;;;;;;10.00;9.00;;;;;25.75;40.31;101196.06;5079982;28;45447;-52
2021/08/15 00:37:32;;;;;;;;;6.75;6.75;;;;;25.74;40.81;101191.75;5080151;28;45343;-50
2021/08/15 00:39:57;;;;;;;;;8.25;7.25;;;;;25.75;40.45;101196.06;5080241;27;45306;-49
2021/08/15 00:42:23;;;;;;;;;8.00;7.75;;;;;25.74;40.64;101199.72;5079723;28;45942;-50
2021/08/15 00:44:48;;;;;;;;;8.75;7.00;;;;;25.74;40.27;101199.72;5080069;28;45273;-47
2021/08/15 00:47:14;;;;;;;;;10.25;9.25;;;;;25.74;40.94;101199.72;5080042;27;45308;-47
2021/08/15 00:49:40;;;;;;;;;7.50;7.50;;;;;25.72;40.99;101191.84;5080177;27;45605;-47
2021/08/15 00:52:05;;;;;;;;;9.75;9.00;;;;;25.74;40.84;101197.88;5079656;28;45208;-54
2021/08/15 00:54:31;;;;;;;;;8.50;7.75;;;;;25.72;41.02;101194.50;5079742;27;45252;-50
2021/08/15 00:56:57;;;;;;;;;7.75;7.75;;;;;25.72;40.91;101191.84;5079879;28;45333;-50
2021/08/15 00:59:22;;;;;;;;;9.75;8.50;;;;;25.74;41.03;101194.41;5079974;27;45339;-48
2021/08/15 01:01:50;;;;;;;;;9.75;8.50;;;;;25.73;40.37;101190.03;5079470;28;46297;-51
2021/08/15 01:04:15;;;;;;;;;11.75;9.00;;;;;25.73;40.66;101182.91;5079528;28;45833;-53
2021/08/15 01:06:41;;;;;;;;;8.00;8.00;;;;;25.72;40.62;101185.69;5079664;28;45338;-50
2021/08/15 01:09:06;;;;;;;;;8.25;8.25;;;;;25.72;41.22;101185.69;5079712;27;45503;-47
2021/08/15 01:11:34;;;;;;;;;9.00;9.00;;;;;25.72;40.65;101181.22;5079305;28;45581;-50
2021/08/15 01:14:05;;;;;;;;;10.00;8.00;;;;;25.73;41.07;101187.41;5079404;28;45635;-50
2021/08/15 01:16:31;;;;;;;;;10.25;9.25;;;;;25.70;40.80;101183.13;5079549;27;45308;-46
2021/08/15 01:18:57;;;;;;;;;6.50;6.50;;;;;25.71;40.48;101179.53;5079650;28;45400;-51
2021/08/15 01:21:22;;;;;;;;;11.50;8.00;;;;;25.71;40.51;101170.72;5079434;27;46518;-50
2021/08/15 01:23:48;;;;;;;;;7.00;7.00;;;;;25.71;40.46;101173.38;5079233;28;45344;-50
2021/08/15 01:26:15;;;;;;;;;9.50;9.00;;;;;25.71;40.98;101173.38;5079458;28;45247;-49
2021/08/15 01:28:41;;;;;;;;;9.75;8.25;;;;;25.71;40.90;101162.75;5079423;27;45381;-49
2021/08/15 01:31:08;;;;;;;;;8.50;7.50;;;;;25.70;41.17;101161.91;5078874;27;46322;-48
2021/08/15 01:33:36;;;;;;;;;8.75;7.00;;;;;25.71;40.88;101160.94;5079219;28;45455;-50
2021/08/15 01:36:03;;;;;;;;;8.50;6.75;;;;;25.70;40.54;101156.59;5061032;28;45348;-47
2021/08/15 01:38:33;;;;;;;;;7.25;7.25;;;;;25.69;40.46;101160.19;5079203;27;45335;-48
2021/08/15 01:40:58;;;;;;;;;6.00;6.00;;;;;25.70;40.84;101158.41;5078845;28;45429;-46
2021/08/15 01:43:25;;;;;;;;;10.00;9.00;;;;;25.69;41.24;101159.34;5079110;27;45383;-50
2021/08/15 01:45:51;;;;;;;;;8.00;8.00;;;;;25.70;40.67;101156.59;5078485;28;45284;-46
2021/08/15 01:48:17;;;;;;;;;7.75;7.25;;;;;25.70;40.84;101155.75;5078788;28;45409;-51
2021/08/15 01:50:43;;;;;;;;;10.25;8.00;;;;;25.69;40.86;101157.53;5078736;28;45319;-48
2021/08/15 01:53:14;;;;;;;;;8.00;7.75;;;;;25.69;40.73;101148.75;5078699;28;45330;-47
2021/08/15 01:55:41;;;;;;;;;7.50;7.25;;;;;25.69;40.72;101146.91;5060541;28;45336;-51
2021/08/15 01:58:08;;;;;;;;;9.50;6.25;;;;;25.69;41.31;101143.44;5060886;28;45517;-46
2021/08/15 02:00:35;;;;;;;;;9.50;8.25;;;;;25.69;40.82;101143.44;5078416;28;46460;-49
2021/08/15 02:03:00;;;;;;;;;11.25;9.00;;;;;25.69;41.46;101140.78;5078545;28;45636;-46
2021/08/15 02:05:26;;;;;;;;;7.75;7.25;;;;;25.69;41.18;101138.97;5060948;28;45279;-50
2021/08/15 02:07:54;;;;;;;;;10.00;10.00;;;;;25.69;40.98;101140.78;5078835;28;45203;-52
2021/08/15 02:10:22;;;;;;;;;10.50;8.75;;;;;25.68;40.97;101141.75;5060167;28;48196;-47
2021/08/15 02:12:47;;;;;;;;;14.00;10.25;;;;;25.68;41.43;101142.59;5078390;28;45759;-48
2021/08/15 02:15:13;;;;;;;;;8.00;7.75;;;;;25.66;41.48;101143.66;5078554;27;45305;-48
2021/08/15 02:17:38;;;;;;;;;8.75;8.75;;;;;25.67;41.21;101135.59;5078846;28;45354;-49
2021/08/15 02:20:05;;;;;;;;;10.75;8.75;;;;;25.69;41.03;101138.13;5078230;28;46279;-51
2021/08/15 02:22:30;;;;;;;;;13.00;10.75;;;;;25.67;41.43;101135.59;5078297;28;45630;-51
2021/08/15 02:24:56;;;;;;;;;9.50;9.50;;;;;25.67;41.42;101134.72;5078690;27;45194;-50
2021/08/15 02:27:21;;;;;;;;;10.75;10.00;;;;;25.67;41.11;101130.28;5078472;28;45190;-51
2021/08/15 02:29:46;;;;;;;;;10.75;9.50;;;;;25.67;40.98;101124.13;5078193;28;46221;-49
2021/08/15 02:32:12;;;;;;;;;8.50;6.50;;;;;25.67;41.26;101124.13;5078081;28;45259;-50
2021/08/15 02:34:37;;;;;;;;;11.00;11.00;;;;;25.66;41.55;101117.09;5078308;28;45811;-49
2021/08/15 02:37:03;;;;;;;;;9.50;9.50;;;;;25.66;41.26;101111.78;5078444;28;45557;-47
2021/08/15 02:39:28;;;;;;;;;12.25;11.50;;;;;25.65;41.64;101115.41;5077959;27;46623;-46
2021/08/15 02:41:54;;;;;;;;;11.00;9.50;;;;;25.66;41.24;101117.09;5078264;27;45400;-47
2021/08/15 02:44:19;;;;;;;;;9.75;9.75;;;;;25.66;41.55;101119.75;5059803;28;45350;-46
2021/08/15 02:46:44;;;;;;;;;12.50;10.00;;;;;25.67;41.26;101118.81;5078227;28;45465;-49
2021/08/15 02:49:10;;;;;;;;;9.00;6.25;;;;;25.65;41.54;101110.97;5059331;28;54081;-47
2021/08/15 02:51:35;;;;;;;;;10.25;10.25;;;;;25.65;41.64;101107.44;5077769;28;45418;-49
2021/08/15 02:54:00;;;;;;;;;10.75;9.75;;;;;25.65;41.75;101102.13;5077826;28;45261;-50
2021/08/15 02:56:26;;;;;;;;;9.75;7.25;;;;;25.65;41.10;101095.03;5078281;28;45391;-48
2021/08/15 02:58:51;;;;;;;;;10.25;8.50;;;;;25.65;41.25;101094.16;5077502;28;46430;-51
2021/08/15 03:01:16;;;;;;;;;8.75;8.75;;;;;25.65;41.51;101091.53;5077274;28;52854;-48
2021/08/15 03:03:42;;;;;;;;;11.50;9.50;;;;;25.64;41.71;101090.69;5077729;28;45380;-48
2021/08/15 03:06:07;;;;;;;;;12.50;9.50;;;;;25.63;41.31;101087.16;5078000;28;45321;-49
2021/08/15 03:08:32;;;;;;;;;12.75;10.25;;;;;25.62;41.34;101082.84;5077371;28;45432;-46
2021/08/15 03:10:58;;;;;;;;;9.50;8.25;;;;;25.62;41.24;101085.50;5077795;27;45360;-50
2021/08/15 03:13:23;;;;;;;;;8.50;7.50;;;;;25.62;41.45;101082.84;5077609;28;45235;-49
2021/08/15 03:15:48;;;;;;;;;9.00;9.00;;;;;25.63;41.17;101087.16;5077843;28;45377;-49
2021/08/15 03:18:17;;;;;;;;;9.25;7.00;;;;;25.63;41.63;101079.19;5077277;28;45223;-46
2021/08/15 03:20:43;;;;;;;;;11.75;11.25;;;;;25.62;41.84;101079.31;5077316;28;45883;-46
2021/08/15 03:23:09;;;;;;;;;10.75;8.75;;;;;25.62;41.62;101076.66;5077342;28;45343;-48
2021/08/15 03:25:37;;;;;;;;;9.75;8.50;;;;;25.62;41.61;101071.38;5077643;28;45515;-47
2021/08/15 03:28:06;;;;;;;;;9.00;8.00;;;;;25.62;41.61;101071.38;5077240;28;45374;-47
2021/08/15 03:30:32;;;;;;;;;8.25;7.50;;;;;25.62;42.02;101076.66;5077281;28;45354;-47
2021/08/15 03:32:57;;;;;;;;;12.00;9.50;;;;;25.60;41.96;101068.84;5077652;28;45420;-47
2021/08/15 03:35:23;;;;;;;;;11.50;9.00;;;;;25.60;41.51;101071.50;5077544;28;45420;-47
2021/08/15 03:37:48;;;;;;;;;7.25;7.00;;;;;25.61;41.63;101080.28;5058772;28;47356;-48
2021/08/15 03:40:13;;;;;;;;;10.50;8.50;;;;;25.60;41.44;101071.50;5077136;28;45333;-51
2021/08/15 03:42:39;;;;;;;;;10.50;10.00;;;;;25.61;41.58;101069.66;5077173;28;45374;-50
2021/08/15 03:45:06;;;;;;;;;13.25;9.00;;;;;25.60;41.59;101078.59;5077302;28;45356;-49
2021/08/15 03:47:32;;;;;;;;;8.25;8.25;;;;;25.60;41.68;101076.78;5059264;28;46335;-53
2021/08/15 03:50:01;;;;;;;;;10.25;8.75;;;;;25.59;41.52;101069.78;5059049;28;45398;-47
2021/08/15 03:52:26;;;;;;;;;12.25;10.25;;;;;25.59;41.49;101075.09;5077027;28;45284;-51
2021/08/15 03:54:51;;;;;;;;;13.50;9.00;;;;;25.59;41.71;101064.47;5077228;27;45596;-50
2021/08/15 03:57:18;;;;;;;;;12.50;9.75;;;;;25.60;41.73;101070.63;5076943;28;45336;-51
2021/08/15 03:59:43;;;;;;;;;13.00;10.50;;;;;25.59;41.62;101075.09;5076581;28;45347;-51
2021/08/15 04:02:09;;;;;;;;;10.25;9.00;;;;;25.60;41.46;101070.63;5076864;27;45376;-48
2021/08/15 04:04:34;;;;;;;;;10.00;8.75;;;;;25.60;41.62;101066.19;5077081;28;45512;-48
2021/08/15 04:07:00;;;;;;;;;10.75;9.50;;;;;25.60;41.66;101071.50;5076453;28;46339;-50
2021/08/15 04:09:25;;;;;;;;;11.75;11.00;;;;;25.59;42.04;101067.13;5076557;27;45373;-52
2021/08/15 04:11:50;;;;;;;;;6.50;5.75;;;;;25.56;41.55;101059.38;5076777;28;45882;-51
2021/08/15 04:14:16;;;;;;;;;9.00;9.00;;;;;25.58;41.61;101060.13;5076839;28;45553;-50
2021/08/15 04:16:41;;;;;;;;;13.00;12.00;;;;;25.59;42.27;101069.78;5076396;28;51011;-49
2021/08/15 04:19:06;;;;;;;;;9.75;9.75;;;;;25.59;41.72;101069.78;5076555;28;45380;-52
2021/08/15 04:21:32;;;;;;;;;7.75;7.75;;;;;25.58;41.58;101068.09;5076691;27;45349;-52
2021/08/15 04:23:57;;;;;;;;;12.00;9.25;;;;;25.59;42.02;101063.63;5076831;28;45398;-51
2021/08/15 04:26:23;;;;;;;;;9.00;8.00;;;;;25.58;42.05;101052.16;5076319;28;46090;-52
2021/08/15 04:28:49;;;;;;;;;8.25;7.25;;;;;25.58;42.28;101046.00;5076632;27;45259;-51
2021/08/15 04:31:14;;;;;;;;;10.00;9.25;;;;;25.58;42.09;101041.56;5076535;27;45249;-49
2021/08/15 04:33:39;;;;;;;;;9.00;9.00;;;;;25.58;42.28;101040.69;5076619;28;45521;-50
2021/08/15 04:36:05;;;;;;;;;11.25;8.25;;;;;25.57;41.93;101045.16;5057980;28;45940;-48
2021/08/15 04:38:30;;;;;;;;;8.75;8.00;;;;;25.57;42.56;101034.53;5076559;28;45344;-51
2021/08/15 04:40:55;;;;;;;;;9.25;8.50;;;;;25.57;42.49;101049.63;5076383;28;45439;-48
2021/08/15 04:43:21;;;;;;;;;10.50;9.75;;;;;25.57;42.59;101049.63;5076604;28;45432;-47
2021/08/15 04:45:48;;;;;;;;;15.00;10.75;;;;;25.57;43.12;101047.81;5075991;28;46272;-50
2021/08/15 04:48:14;;;;;;;;;10.75;10.75;;;;;25.52;42.83;101039.34;5076227;28;45307;-47
2021/08/15 04:50:40;;;;;;;;;12.00;10.00;;;;;25.50;42.87;101043.94;5076420;28;45292;-48
2021/08/15 04:53:05;;;;;;;;;10.25;10.00;;;;;25.44;42.53;101044.38;5076327;28;45641;-50
2021/08/15 04:55:31;;;;;;;;;10.25;10.00;;;;;25.40;43.11;101042.88;5076294;28;46332;-50
2021/08/15 04:57:56;;;;;;;;;11.50;10.00;;;;;25.36;42.73;101036.09;5076158;28;45386;-50
2021/08/15 05:00:22;;;;;;;;;9.25;7.50;;;;;25.31;42.91;101045.22;5076003;28;45401;-49
2021/08/15 05:02:47;;;;;;;;;10.50;9.00;;;;;25.28;43.04;101042.81;5076020;27;45534;-51
2021/08/15 05:05:12;;;;;;;;;14.25;9.25;;;;;25.23;42.92;101030.84;5075924;27;46135;-51
2021/08/15 05:07:38;;;;;;;;;11.50;9.00;;;;;25.20;43.62;101034.53;5075956;28;45265;-49
2021/08/15 05:10:04;;;;;;;;;8.25;7.00;;;;;25.16;42.95;101035.75;5076470;28;45341;-49
2021/08/15 05:12:29;;;;;;;;;9.25;8.75;;;;;25.11;43.25;101037.88;5076170;28;45477;-50
2021/08/15 05:14:54;;;;;;;;;8.00;8.00;;;;;25.10;43.74;101045.00;5057707;28;47371;-53
2021/08/15 05:17:20;;;;;;;;;8.00;6.25;;;;;25.07;43.35;101039.06;5075820;28;45220;-53
2021/08/15 05:19:45;;;;;;;;;7.50;6.75;;;;;25.05;43.65;101038.31;5076947;28;45346;-49
2021/08/15 05:22:10;;;;;;;;;10.75;9.00;;;;;25.04;43.52;101036.63;5079491;28;45431;-48
2021/08/15 05:24:36;;;;;;;;;8.75;8.00;;;;;25.01;43.52;101037.69;5079564;27;45664;-48
2021/08/15 05:27:01;;;;;;;;;10.75;7.25;;;;;24.98;44.05;101036.09;5079322;28;45173;-50
2021/08/15 05:29:27;;;;;;;;;8.75;7.25;;;;;24.96;44.29;101035.38;5079466;28;45531;-48
2021/08/15 05:31:52;;;;;;;;;7.75;7.75;;;;;24.95;44.23;101046.94;5079372;28;45544;-48
2021/08/15 05:34:17;;;;;;;;;9.25;9.25;;;;;24.94;44.17;101037.28;5079046;27;46700;-45
2021/08/15 05:36:43;;;;;;;;;8.00;8.00;;;;;24.93;44.31;101035.59;5060769;27;45494;-46
2021/08/15 05:39:08;;;;;;;;;10.00;9.25;;;;;24.93;43.92;101035.59;5079227;27;45351;-47
2021/08/15 05:41:33;;;;;;;;;9.00;7.50;;;;;24.92;43.99;101033.88;5079542;28;45573;-47
2021/08/15 05:43:59;;;;;;;;;10.00;8.75;;;;;24.90;44.35;101027.84;5078800;28;45458;-46
2021/08/15 05:46:24;;;;;;;;;7.25;7.25;;;;;24.87;44.03;101030.72;5078906;27;45439;-47
2021/08/15 05:48:49;;;;;;;;;8.75;8.75;;;;;24.89;44.65;101030.63;5078864;27;45863;-46
2021/08/15 05:51:15;;;;;;;;;8.75;8.75;;;;;24.85;44.71;101035.28;5079126;28;45338;-47
2021/08/15 05:53:40;;;;;;;;;10.75;8.00;;;;;24.85;44.26;101037.94;5078904;28;46298;-47
2021/08/15 05:56:05;;;;;;;;;12.75;6.75;;;;;24.84;44.61;101030.94;5060970;28;45370;-45
2021/08/15 05:58:31;;;;;;;;;9.50;8.00;;;;;24.81;44.89;101029.34;5078728;28;45489;-47
2021/08/15 06:00:56;;;;;;;;;12.00;9.50;;;;;24.79;44.22;101028.63;5079065;28;45370;-47
2021/08/15 06:03:21;;;;;;;;;9.75;9.50;;;;;24.81;44.49;101039.09;5078526;28;45577;-46
2021/08/15 06:05:47;;;;;;;;;11.75;9.00;;;;;24.80;45.13;101040.06;5078597;27;45401;-47
2021/08/15 06:08:14;;;;;;;;;7.25;6.75;;;;;24.82;44.36;101035.50;5078724;28;45369;-48
2021/08/15 06:10:39;;;;;;;;;12.25;8.00;;;;;24.81;44.88;101037.28;5078960;28;45371;-48
2021/08/15 06:13:05;;;;;;;;;14.00;9.75;;;;;24.81;44.85;101036.47;5078669;28;46137;-47
2021/08/15 06:15:31;;;;;;;;;11.75;8.75;;;;;24.82;44.69;101035.50;5078464;28;45407;-46
2021/08/15 06:17:56;;;;;;;;;7.00;7.00;;;;;24.82;44.45;101033.69;5060388;28;45423;-46
2021/08/15 06:20:21;;;;;;;;;7.50;7.00;;;;;24.82;44.56;101032.84;5078637;27;45162;-48
2021/08/15 06:22:47;;;;;;;;;8.00;7.00;;;;;24.83;44.61;101035.38;5078060;27;46413;-47
2021/08/15 06:25:15;;;;;;;;;9.00;9.00;;;;;24.84;44.69;101042.38;5060289;28;45261;-46
2021/08/15 06:27:44;;;;;;;;;9.00;9.00;;;;;24.84;45.04;101041.56;5078456;28;45315;-48
2021/08/15 06:30:11;;;;;;;;;17.25;9.25;;;;;24.85;44.94;101040.59;5078411;28;45584;-48
2021/08/15 06:32:53;;;;;;;;;8.75;7.25;;;;;24.85;44.42;101038.78;5078425;27;47041;-50
2021/08/15 06:35:21;;;;;;;;;8.75;8.75;;;;;24.87;44.55;101038.66;5078230;28;45386;-49
2021/08/15 06:37:47;;;;;;;;;9.25;9.00;;;;;24.85;45.14;101043.25;5078208;27;45295;-47
2021/08/15 06:40:14;;;;;;;;;13.00;8.00;;;;;24.86;44.48;101039.63;5078360;28;45627;-47
2021/08/15 06:42:40;;;;;;;;;9.50;7.50;;;;;24.82;44.49;101039.00;5078075;28;46446;-47
2021/08/15 06:45:06;;;;;;;;;6.75;6.75;;;;;24.87;45.04;101036.00;5078007;27;45323;-47
2021/08/15 06:47:31;;;;;;;;;10.00;8.00;;;;;24.89;44.43;101039.41;5077917;27;45537;-46
2021/08/15 06:49:57;;;;;;;;;7.00;6.50;;;;;24.90;44.59;101029.66;5078139;28;45512;-48
2021/08/15 06:52:22;;;;;;;;;9.25;9.25;;;;;24.90;44.66;101025.19;5059392;28;53758;-47
2021/08/15 06:54:47;;;;;;;;;7.50;5.75;;;;;24.92;44.63;101023.28;5077725;27;49137;-47
2021/08/15 06:57:14;;;;;;;;;11.25;9.75;;;;;24.93;45.23;101026.78;5077978;28;45367;-47
2021/08/15 06:59:40;;;;;;;;;9.50;8.00;;;;;24.95;44.77;101027.50;5060055;28;45282;-48
2021/08/15 07:02:05;;;;;;;;;8.75;8.25;;;;;24.95;45.12;101027.50;5077470;27;45589;-46
2021/08/15 07:04:30;;;;;;;;;6.00;6.00;;;;;24.96;44.87;101035.38;5077737;28;45220;-48
2021/08/15 07:06:55;;;;;;;;;7.50;6.00;;;;;24.98;44.44;101037.91;5077783;28;45206;-47
2021/08/15 07:09:21;;;;;;;;;9.25;9.25;;;;;24.97;44.13;101029.09;5078007;27;45310;-46
2021/08/15 07:11:46;;;;;;;;;12.50;8.00;;;;;24.99;44.56;101024.53;5077422;27;46463;-47
2021/08/15 07:14:11;;;;;;;;;8.00;7.00;;;;;25.03;44.72;101035.75;5078018;28;45271;-46
2021/08/15 07:16:37;;;;;;;;;12.50;8.50;;;;;25.04;44.37;101042.75;5077886;27;45845;-47
2021/08/15 07:19:02;;;;;;;;;12.25;8.50;;;;;25.05;44.41;101044.47;5077809;28;45792;-47
2021/08/15 07:21:28;;;;;;;;;10.50;7.25;;;;;25.07;44.23;101041.72;5077281;28;46176;-48
2021/08/15 07:23:53;;;;;;;;;9.50;9.25;;;;;25.08;44.33;101043.41;5077418;28;45426;-46
2021/08/15 07:26:19;;;;;;;;;12.00;10.00;;;;;25.08;44.35;101038.13;5077497;28;45374;-49
2021/08/15 07:28:44;;;;;;;;;9.00;7.00;;;;;25.10;44.76;101039.69;5077641;28;45526;-51
2021/08/15 07:31:10;;;;;;;;;11.25;8.25;;;;;25.11;44.49;101046.69;5077382;28;45386;-47
2021/08/15 07:33:36;;;;;;;;;7.25;7.00;;;;;25.14;44.73;101045.59;5077229;28;45421;-47
2021/08/15 07:36:02;;;;;;;;;8.50;8.50;;;;;25.16;44.67;101041.06;5059258;28;45416;-51
2021/08/15 07:38:27;;;;;;;;;11.50;10.00;;;;;25.18;44.84;101041.78;5077381;28;45299;-47
2021/08/15 07:40:53;;;;;;;;;10.25;9.50;;;;;25.22;44.48;101035.28;5077067;28;46237;-47
2021/08/15 07:43:19;;;;;;;;;11.25;10.50;;;;;25.25;44.21;101039.50;5076127;28;45655;-47
2021/08/15 07:45:45;;;;;;;;;8.75;8.25;;;;;25.27;44.32;101032.28;5076375;27;45292;-48
2021/08/15 07:48:10;;;;;;;;;12.00;8.25;;;;;25.28;44.21;101034.88;5059558;28;45577;-48
2021/08/15 07:50:36;;;;;;;;;9.50;9.50;;;;;25.29;44.87;101030.38;5076980;28;45668;-50
2021/08/15 07:53:22;;;;;;;;;12.75;10.50;;;;;25.31;44.08;101033.78;5077033;28;45350;-51
2021/08/15 07:55:48;;;;;;;;;13.50;10.75;;;;;25.34;44.23;101035.34;5076931;27;45185;-47
2021/08/15 07:58:14;;;;;;;;;11.50;10.00;;;;;25.35;44.10;101040.56;5077216;28;45386;-48
2021/08/15 08:00:39;;;;;;;;;9.25;7.00;;;;;25.36;44.54;101033.44;5077195;28;47070;-47
2021/08/15 08:03:06;;;;;;;;;7.25;7.25;;;;;25.38;44.02;101039.50;5076736;28;45360;-49
2021/08/15 08:05:32;;;;;;;;;12.50;10.00;;;;;25.39;44.72;101033.22;5076898;28;45425;-48
2021/08/15 08:07:57;;;;;;;;;11.25;10.00;;;;;25.39;44.55;101025.28;5076925;27;45544;-48
2021/08/15 08:10:22;;;;;;;;;9.50;9.00;;;;;25.41;44.51;101026.03;5076636;27;46111;-52
2021/08/15 08:12:48;;;;;;;;;8.50;8.25;;;;;25.43;44.05;101022.31;5076531;27;45362;-49
2021/08/15 08:15:13;;;;;;;;;6.75;6.75;;;;;25.44;44.10;101024.00;5077007;28;45158;-48
2021/08/15 08:17:39;;;;;;;;;11.75;9.75;;;;;25.46;44.03;101021.22;5076874;28;45523;-49
2021/08/15 08:20:05;;;;;;;;;10.75;8.00;;;;;25.47;43.97;101018.44;5076477;28;46495;-49
2021/08/15 08:22:30;;;;;;;;;12.25;8.00;;;;;25.49;44.34;101026.31;5076519;28;45718;-52
2021/08/15 08:24:56;;;;;;;;;11.25;10.50;;;;;25.49;43.99;101015.69;5076699;27;45348;-51
2021/08/15 08:27:21;;;;;;;;;10.00;8.75;;;;;25.51;44.12;101013.78;5076683;27;45319;-50
2021/08/15 08:29:47;;;;;;;;;9.25;9.25;;;;;25.52;44.10;101010.16;5076406;28;46537;-48
2021/08/15 08:32:13;;;;;;;;;10.25;9.00;;;;;25.54;43.80;101008.22;5076733;28;45513;-47
2021/08/15 08:34:39;;;;;;;;;12.50;10.75;;;;;25.56;44.19;101005.47;5076476;27;45362;-49
2021/08/15 08:37:04;;;;;;;;;12.75;10.00;;;;;25.56;44.03;101008.97;5076706;28;45656;-48
2021/08/15 08:39:30;;;;;;;;;7.00;7.00;;;;;25.57;43.92;101010.66;5076272;28;46004;-52
2021/08/15 08:41:59;;;;;;;;;11.00;9.25;;;;;25.59;44.02;101010.53;5076243;28;45369;-51
2021/08/15 08:44:29;;;;;;;;;12.75;8.50;;;;;25.61;44.04;101011.28;5058231;28;45374;-48
2021/08/15 08:47:00;;;;;;;;;12.25;10.50;;;;;25.63;44.47;101017.31;5076459;28;45438;-47
2021/08/15 08:49:26;;;;;;;;;12.75;10.25;;;;;25.64;43.76;101013.72;5057906;28;47147;-49
2021/08/15 08:51:52;;;;;;;;;13.25;9.25;;;;;25.64;44.10;101011.06;5076233;28;45936;-48
2021/08/15 08:54:17;;;;;;;;;11.75;8.00;;;;;25.65;44.41;101010.09;5078210;28;45275;-46
2021/08/15 08:56:42;;;;;;;;;11.25;9.25;;;;;25.66;44.47;101016.25;5080352;27;45229;-49
2021/08/15 08:59:08;;;;;;;;;7.75;6.50;;;;;25.67;44.21;101007.31;5079463;28;46077;-49
2021/08/15 09:01:33;;;;;;;;;9.75;9.25;;;;;25.68;44.06;101011.66;5079492;28;45351;-48
2021/08/15 09:03:59;;;;;;;;;13.75;8.75;;;;;25.68;44.45;101003.69;5079799;28;45353;-48
2021/08/15 09:06:26;;;;;;;;;8.75;8.75;;;;;25.68;44.05;101004.56;5079820;27;45787;-47
2021/08/15 09:08:52;;;;;;;;;17.50;11.00;;;;;25.71;43.84;101003.47;5079469;28;46627;-46
2021/08/15 09:11:21;;;;;;;;;11.75;8.00;;;;;25.71;44.40;100993.69;5079775;27;45442;-48
2021/08/15 09:14:04;;;;;;;;;10.75;8.75;;;;;25.73;44.26;100993.59;5079901;28;45305;-48
2021/08/15 09:17:08;;;;;;;;;11.75;9.75;;;;;25.73;43.80;100993.59;5079843;28;45332;-48
2021/08/15 09:19:39;;;;;;;;;12.00;11.25;;;;;25.74;44.52;100987.34;5016766;28;46265;-48
2021/08/15 09:22:27;;;;;;;;;8.50;8.50;;;;;25.75;44.42;100981.03;5016876;28;45452;-50
2021/08/15 09:24:52;;;;;;;;;13.75;12.00;;;;;25.75;44.50;100975.72;5040000;28;45330;-49
2021/08/15 09:27:20;;;;;;;;;12.00;10.33;;;;;25.76;44.38;100980.06;5079871;27;45388;-49
2021/08/15 09:30:26;;;;;;;;;12.50;9.00;;;;;25.77;44.57;100973.81;5079397;28;46617;-49
2021/08/15 09:32:54;;;;;;;;;12.00;10.75;;;;;25.79;44.32;100979.84;5063419;27;45667;-48
2021/08/15 09:35:27;;;;;;;;;14.25;12.00;;;;;25.79;44.40;100974.53;5079364;27;45371;-48
2021/08/15 09:38:00;;;;;;;;;10.50;10.50;;;;;25.80;44.50;100975.41;5079452;28;45360;-48
2021/08/15 09:40:34;;;;;;;;;12.00;10.00;;;;;25.81;44.62;100967.31;5078815;28;46476;-48
2021/08/15 09:43:01;;;;;;;;;13.50;10.50;;;;;25.82;44.32;100971.66;5078852;27;45680;-51
2021/08/15 09:45:36;;;;;;;;;11.00;11.00;;;;;25.83;44.53;100968.03;5079101;28;45193;-49
2021/08/15 09:48:34;;;;;;;;;10.25;10.25;;;;;25.85;44.88;100959.94;5079145;28;45273;-50
2021/08/15 09:51:20;;;;;;;;;11.75;11.75;;;;;25.86;44.82;100965.13;5078640;28;46288;-48
2021/08/15 09:53:58;;;;;;;;;15.00;12.00;;;;;25.87;44.54;100966.84;5079132;27;45685;-48
2021/08/15 09:56:41;;;;;;;;;11.25;11.00;;;;;25.90;44.55;100957.81;5078974;27;45462;-47
2021/08/15 09:59:16;;;;;;;;;15.25;13.00;;;;;25.89;44.55;100959.59;5078805;27;45516;-49
2021/08/15 10:01:46;;;;;;;;;12.25;10.50;;;;;25.89;45.08;100954.28;5078542;28;45665;-47
2021/08/15 10:04:13;;;;;;;;;11.50;11.00;;;;;25.91;44.84;100955.03;5078784;28;45655;-48
2021/08/15 10:06:43;;;;;;;;;12.75;11.75;;;;;25.92;45.34;100962.03;5078064;28;45280;-49
2021/08/15 10:09:08;;;;;;;;;11.75;11.75;;;;;25.92;45.30;100956.72;5060712;28;45576;-47
2021/08/15 10:11:37;;;;;;;;;14.00;13.00;;;;;25.95;45.43;100957.44;5078329;27;45433;-51
2021/08/15 10:14:04;;;;;;;;;12.00;12.00;;;;;25.96;45.49;100945.88;5078524;28;45261;-47
2021/08/15 10:16:34;;;;;;;;;13.00;12.00;;;;;25.96;44.99;100946.69;5078612;28;45384;-50
2021/08/15 10:19:07;;;;;;;;;14.00;13.00;;;;;25.99;45.62;100948.25;5078705;28;45509;-48
2021/08/15 10:21:40;;;;;;;;;12.75;12.75;;;;;25.99;45.43;100937.63;5078213;28;46701;-48
2021/08/15 10:24:08;;;;;;;;;13.50;12.75;;;;;25.99;45.35;100929.69;5078188;28;45833;-50
2021/08/15 10:26:36;;;;;;;;;13.75;12.00;;;;;26.00;45.71;100944.66;5060226;28;45400;-48
2021/08/15 10:29:04;;;;;;;;;12.50;11.25;;;;;26.00;44.96;100936.69;5078648;28;45628;-49
2021/08/15 10:32:07;;;;;;;;;11.50;11.25;;;;;26.01;45.60;100939.25;5078151;28;46399;-49
2021/08/15 10:34:54;;;;;;;;;14.75;14.00;;;;;26.02;45.78;100924.97;5078197;27;45352;-48
2021/08/15 10:37:22;;;;;;;;;13.25;13.25;;;;;26.03;45.22;100926.66;5078653;27;45457;-49
2021/08/15 10:39:49;;;;;;;;;13.75;13.50;;;;;26.03;45.77;100921.34;5078966;28;45545;-47
2021/08/15 10:42:41;;;;;;;;;12.75;12.75;;;;;26.03;45.52;100917.84;5059770;28;48245;-47
2021/08/15 10:45:27;;;;;;;;;13.50;11.25;;;;;26.04;45.94;100904.44;5077941;27;45302;-48
2021/08/15 10:48:04;;;;;;;;;13.25;12.50;;;;;26.07;45.72;100904.22;5077976;28;45268;-50
2021/08/15 10:50:42;;;;;;;;;12.00;11.00;;;;;26.08;45.44;100899.75;5078248;28;45344;-48
2021/08/15 10:53:26;;;;;;;;;11.00;11.00;;;;;26.08;45.32;100910.38;5077690;28;47275;-48
2021/08/15 10:55:55;;;;;;;;;13.00;12.25;;;;;26.08;45.79;100899.75;5078233;28;45232;-49
2021/08/15 10:58:38;;;;;;;;;13.00;13.00;;;;;26.10;45.23;100897.00;5078142;28;45395;-47
2021/08/15 11:01:05;;;;;;;;;12.00;12.00;;;;;26.10;45.20;100889.88;5078054;28;45489;-48
2021/08/15 11:03:35;;;;;;;;;12.75;11.25;;;;;26.11;45.72;100896.88;5077554;28;45595;-50
2021/08/15 11:06:02;;;;;;;;;11.00;10.00;;;;;26.10;45.85;100892.53;5077644;28;45356;-50
2021/08/15 11:08:33;;;;;;;;;13.75;12.25;;;;;26.12;45.46;100887.94;5077850;28;45351;-48
2021/08/15 11:11:23;;;;;;;;;13.75;13.25;;;;;26.13;45.65;100889.66;5078078;27;45689;-50
2021/08/15 11:14:24;;;;;;;;;17.00;13.25;;;;;26.13;45.63;100881.69;5077591;28;45351;-49
2021/08/15 11:16:52;;;;;;;;;12.00;11.00;;;;;26.12;45.52;100877.31;5076842;28;45657;-49
2021/08/15 11:19:17;;;;;;;;;12.50;11.50;;;;;26.13;44.89;100879.03;5077531;28;45240;-47
2021/08/15 11:22:01;;;;;;;;;13.00;12.00;;;;;26.13;45.42;100879.03;5077842;28;45573;-48